ADDS METAR Data INFO
IDs: Format: Raw Decoded Include TAF

Data at: 2007 UTC 19 Oct 2017

KMMI 191955Z AUTO 00000KT 10SM CLR 21/06 A3029 RMK
KMMI 191935Z AUTO 00000KT 10SM CLR 21/06 A3029 RMK
KMMI 191915Z AUTO 04004KT 10SM CLR 21/06 A3029 RMK
KMMI 191855Z AUTO 00000KT 10SM CLR 21/05 A3030 RMK
KMMI 191835Z AUTO VRB04KT 10SM CLR 21/06 A3030 RMK
KMMI 191815Z AUTO 07003KT 10SM CLR 20/06 A3031 RMK
KMMI 191755Z AUTO 00000KT 10SM CLR 20/06 A3032 RMK
KMMI 191735Z AUTO 21004KT 10SM CLR 19/06 A3034 RMK
KMMI 191715Z AUTO 00000KT 10SM CLR 19/05 A3035 RMK
KMMI 191655Z AUTO 00000KT 10SM CLR 18/04 A3035 RMK
KMMI 191635Z AUTO 00000KT 10SM CLR 18/06 A3036 RMK
KMMI 191615Z AUTO 03003KT 10SM CLR 17/07 A3037 RMK
KMMI 191555Z AUTO 02003KT 10SM CLR 16/07 A3037 RMK
KMMI 191535Z AUTO 00000KT 10SM CLR 16/07 A3038 RMK
KMMI 191515Z AUTO 05003KT 10SM CLR 14/08 A3038 RMK
KMMI 191455Z AUTO 07003KT 10SM CLR 13/08 A3038 RMK
KMMI 191435Z AUTO 06003KT 10SM CLR 12/08 A3038 RMK
KMMI 191415Z AUTO 00000KT 10SM CLR 11/08 A3038 RMK
KMMI 191355Z AUTO 00000KT 10SM CLR 09/08 A3037 RMK
KMMI 191335Z AUTO 00000KT 10SM CLR 08/08 A3036 RMK
KMMI 191315Z AUTO 00000KT 9SM CLR 07/07 A3036 RMK
KMMI 191255Z AUTO 00000KT 6SM CLR 05/05 A3036 RMK
KMMI 191235Z AUTO 00000KT 10SM CLR 03/03 A3035 RMK
KMMI 191215Z AUTO 00000KT 10SM CLR 03/02 A3034 RMK
KMMI 191155Z AUTO 00000KT 4SM FEW001 03/03 A3033 RMK
KMMI 191135Z AUTO 00000KT 3SM SCT002 03/03 A3033 RMK
KMMI 191115Z AUTO 00000KT 8SM CLR 02/02 A3033 RMK
KMMI 191055Z AUTO 00000KT 1 1/2SM BKN001 02/02 A3032 RMK
KMMI 191035Z AUTO 00000KT 1/2SM OVC001 03/03 A3032 RMK
KMMI 191015Z AUTO 00000KT 1 1/2SM BKN001 03/03 A3031 RMK
KMMI 190955Z AUTO 00000KT 1/2SM OVC001 03/03 A3031 RMK
KMMI 190935Z AUTO 00000KT 1 1/4SM 03/03 A3030 RMK
KMMI 190915Z AUTO 00000KT 4SM 03/03 A3030 RMK
KMMI 190855Z AUTO 00000KT 1 1/4SM BKN001 03/03 A3030 RMK
KMMI 190835Z AUTO 00000KT 3/4SM BKN001 03/03 A3030 RMK
KMMI 190815Z AUTO 00000KT 10SM 04/04 A3030 RMK
KMMI 190755Z AUTO 00000KT 10SM CLR 04/04 A3030 RMK
KMMI 190735Z AUTO 00000KT 10SM CLR 04/04 A3029 RMK
KMMI 190715Z AUTO 00000KT 10SM CLR 04/04 A3029 RMK
KMMI 190655Z AUTO 00000KT 10SM CLR 04/04 A3029 RMK
KMMI 190635Z AUTO 00000KT 10SM CLR 05/05 A3029 RMK
KMMI 190615Z AUTO 00000KT 10SM CLR 05/05 A3029 RMK
KMMI 190555Z AUTO 00000KT 10SM CLR 06/06 A3029 RMK
KMMI 190535Z AUTO 00000KT 10SM CLR 06/06 A3029 RMK
KMMI 190515Z AUTO 00000KT 10SM CLR 06/06 A3029 RMK
KMMI 190455Z AUTO 00000KT 10SM CLR 06/06 A3029 RMK
KMMI 190435Z AUTO 00000KT 10SM CLR 07/07 A3029 RMK
KMMI 190415Z AUTO 00000KT 10SM CLR 07/07 A3030 RMK
KMMI 190355Z AUTO 00000KT 10SM CLR 07/07 A3031 RMK
KMMI 190335Z AUTO 00000KT 10SM CLR 08/07 A3031 RMK
KMMI 190315Z AUTO 00000KT 10SM CLR 08/07 A3031 RMK
KMMI 190255Z AUTO 00000KT 10SM CLR 08/07 A3031 RMK
KMMI 190235Z AUTO 00000KT 10SM CLR 09/08 A3030 RMK
KMMI 190215Z AUTO 00000KT 10SM CLR 09/08 A3030 RMK
KMMI 190155Z AUTO 00000KT 10SM CLR 09/08 A3030 RMK
KMMI 190135Z AUTO 00000KT 10SM CLR 09/08 A3030 RMK
KMMI 190115Z AUTO 00000KT 10SM CLR 10/09 A3030 RMK
KMMI 190055Z AUTO 00000KT 10SM CLR 10/09 A3029 RMK
KMMI 190035Z AUTO 00000KT 10SM CLR 12/09 A3029 RMK
KMMI 190015Z AUTO 00000KT 10SM CLR 12/09 A3029 RMK
KMMI 182355Z AUTO 00000KT 10SM CLR 12/09 A3029 RMK
KMMI 182335Z AUTO 00000KT 10SM CLR 13/09 A3028 RMK
KMMI 182315Z AUTO 00000KT 10SM CLR 14/10 A3028 RMK
KMMI 182255Z AUTO 00000KT 10SM CLR 16/11 A3028 RMK
KMMI 182235Z AUTO 00000KT 10SM CLR 19/08 A3028 RMK
KMMI 182215Z AUTO 00000KT 10SM CLR 20/08 A3027 RMK
KMMI 182155Z AUTO 00000KT 10SM CLR 20/07 A3027 RMK
KMMI 182135Z AUTO 31003KT 10SM CLR 21/08 A3028 RMK
KMMI 182115Z AUTO 31003KT 10SM CLR 21/07 A3028 RMK
KMMI 182055Z AUTO 00000KT 10SM CLR 21/08 A3028 RMK
KMMI 182035Z AUTO 00000KT 10SM CLR 21/08 A3028 RMK
KMMI 182015Z AUTO 00000KT 10SM CLR 21/08 A3028 RMK
KMMI 181955Z AUTO 00000KT 10SM CLR 21/08 A3029 RMK
KMMI 181935Z AUTO 00000KT 10SM CLR 20/08 A3029 RMK
KMMI 181915Z AUTO 11003KT 10SM CLR 20/08 A3030 RMK
KMMI 181855Z AUTO 00000KT 10SM CLR 20/08 A3030 RMK
KMMI 181835Z AUTO 00000KT 10SM CLR 20/08 A3032 RMK
KMMI 181815Z AUTO 26003KT 10SM CLR 19/08 A3033 RMK
KMMI 181755Z AUTO 07004KT 10SM CLR 18/08 A3034 RMK
KMMI 181735Z AUTO 05003KT 10SM CLR 18/08 A3035 RMK
KMMI 181715Z AUTO 33004KT 10SM CLR 18/08 A3036 RMK
KMMI 181655Z AUTO VRB04KT 10SM CLR 17/08 A3036 RMK
KMMI 181635Z AUTO 01003KT 10SM CLR 17/08 A3037 RMK
KMMI 181615Z AUTO 00000KT 10SM CLR 17/07 A3038 RMK
KMMI 181555Z AUTO 20003KT 10SM CLR 16/07 A3038 RMK
KMMI 181535Z AUTO 00000KT 10SM CLR 15/08 A3038 RMK
KMMI 181515Z AUTO 00000KT 10SM CLR 14/08 A3038 RMK
KMMI 181455Z AUTO 00000KT 10SM CLR 13/09 A3038 RMK
KMMI 181435Z AUTO 00000KT 10SM CLR 12/09 A3038 RMK
KMMI 181415Z AUTO 00000KT 10SM CLR 11/08 A3038 RMK
KMMI 181355Z AUTO 00000KT 10SM CLR 09/08 A3038 RMK
KMMI 181335Z AUTO 00000KT 10SM CLR 08/07 A3037 RMK
KMMI 181315Z AUTO 00000KT 10SM CLR 07/06 A3036 RMK
KMMI 181255Z AUTO 00000KT 10SM CLR 05/05 A3036 RMK
KMMI 181235Z AUTO 00000KT 10SM CLR 04/04 A3036 RMK
KMMI 181215Z AUTO 00000KT 10SM CLR 02/02 A3035 RMK
KMMI 181155Z AUTO 00000KT 10SM CLR 02/02 A3034 RMK
KMMI 181135Z AUTO 00000KT 10SM CLR 02/02 A3034 RMK
KMMI 181115Z AUTO 00000KT 10SM CLR 03/02 A3034 RMK
KMMI 181055Z AUTO 00000KT 10SM CLR 03/02 A3033 RMK
KMMI 181035Z AUTO 00000KT 10SM CLR 03/03 A3033 RMK
KMMI 181015Z AUTO 00000KT 10SM CLR 03/03 A3033 RMK
KMMI 180955Z AUTO 00000KT 10SM CLR 03/03 A3032 RMK
KMMI 180935Z AUTO 00000KT 10SM CLR 03/03 A3032 RMK
KMMI 180915Z AUTO 00000KT 10SM CLR 03/03 A3032 RMK
KMMI 180855Z AUTO 00000KT 10SM CLR 04/03 A3031 RMK
KMMI 180835Z AUTO 00000KT 10SM CLR 03/03 A3031 RMK
KMMI 180815Z AUTO 00000KT 10SM CLR 04/03 A3031 RMK